SALOWW 160920Z VRB02KT 9999 FEW050 05/02 Q1033 NOSIG
FTLOWW 160815Z 1609/1715 02003KT CAVOK TX08/1611Z TNM05/1705Z BECMG 1701/1703 3000 BR NSC TEMPO 1703/1708 VRB02KT 1200 FZBCFG BECMG 1708/1710 CAVOK